Etusivu
METAR-TAF:

METAR-TAF

Lentoasemat :

Cook Municipal Airport

Cook, Minnesota, Yhdysvallat

Leveyspiiri: 47-49-19N, Pituuspiiri: 092-41-22W, korkeus merenpinnasta: 405 m

Tämänhetkinen sää

Tämä raportti tehtiin 1 tunti ja 4 minuuttia sitten, kello 02.55 UTC
tyyntä
Lämpötila 4°C
Kosteus 65%
Ilmanpaine 1020 hPa
Näkyvyys: 16.1 km

METAR: KCQM 230255Z AUTO 00000KT 10SM 04/M02 A3011 RMK AO2

Aika: 22:59 (03:59 UTC)


TAF: puuttuu

Säähavainnot ja -ennusteet yli 4000 lentoasemalta (METAR- ja TAF-raportit).

Käytössä olevat sääasemat on merkitty karttaan keltaisilla ja punaisilla pisteillä.

Aseta hiiri pisteen päälle nähdäksesi sääaseman nimen.

Klikkaa sitten nähdäksesi säähavainnot ja -ennusteet.

Kartan vaihtaminen: klikkaa mustalla rastilla varustettuja vihreitä pisteitä, niin voit zoomata sisään; viivalla varustettua vihreää pistettä, niin voit zoomata ulos tai vihreitä nuolia, niin pääset viereisille kartoille.


METAR-TAF: